sensor_id;sensor_type;location;lat;lon;timestamp;P1;durP1;ratioP1;P2;durP2;ratioP2
52798;SDS011;38667;42.872;74.622;2023-08-06T00:01:10;8.98;;;2.28;;
52798;SDS011;38667;42.872;74.622;2023-08-06T00:03:37;7.22;;;2.20;;
52798;SDS011;38667;42.872;74.622;2023-08-06T00:06:04;9.73;;;2.47;;
52798;SDS011;38667;42.872;74.622;2023-08-06T00:08:30;5.13;;;1.90;;
52798;SDS011;38667;42.872;74.622;2023-08-06T00:10:58;6.30;;;2.10;;
52798;SDS011;38667;42.872;74.622;2023-08-06T00:13:25;5.90;;;2.08;;
52798;SDS011;38667;42.872;74.622;2023-08-06T00:15:51;5.75;;;1.98;;
52798;SDS011;38667;42.872;74.622;2023-08-06T00:18:17;5.82;;;2.13;;
52798;SDS011;38667;42.872;74.622;2023-08-06T00:20:43;6.85;;;2.30;;
52798;SDS011;38667;42.872;74.622;2023-08-06T00:23:10;6.78;;;2.65;;
52798;SDS011;38667;42.872;74.622;2023-08-06T00:25:36;8.32;;;2.60;;
52798;SDS011;38667;42.872;74.622;2023-08-06T00:28:04;7.32;;;2.20;;
52798;SDS011;38667;42.872;74.622;2023-08-06T00:30:31;7.85;;;1.98;;
52798;SDS011;38667;42.872;74.622;2023-08-06T00:32:57;8.88;;;2.10;;
52798;SDS011;38667;42.872;74.622;2023-08-06T00:35:23;9.20;;;2.33;;
52798;SDS011;38667;42.872;74.622;2023-08-06T00:37:49;8.70;;;2.22;;
52798;SDS011;38667;42.872;74.622;2023-08-06T00:40:16;3.90;;;2.17;;
52798;SDS011;38667;42.872;74.622;2023-08-06T00:42:45;8.55;;;2.45;;
52798;SDS011;38667;42.872;74.622;2023-08-06T00:45:13;4.18;;;2.10;;
52798;SDS011;38667;42.872;74.622;2023-08-06T00:47:39;2.45;;;2.00;;
52798;SDS011;38667;42.872;74.622;2023-08-06T00:50:07;8.75;;;2.50;;
52798;SDS011;38667;42.872;74.622;2023-08-06T00:52:34;5.40;;;2.20;;
52798;SDS011;38667;42.872;74.622;2023-08-06T00:55:01;8.25;;;2.50;;
52798;SDS011;38667;42.872;74.622;2023-08-06T00:57:27;15.98;;;3.13;;
52798;SDS011;38667;42.872;74.622;2023-08-06T00:59:54;6.13;;;2.30;;
52798;SDS011;38667;42.872;74.622;2023-08-06T01:02:22;5.38;;;2.85;;
52798;SDS011;38667;42.872;74.622;2023-08-06T01:04:49;6.82;;;2.55;;
52798;SDS011;38667;42.872;74.622;2023-08-06T01:07:19;9.15;;;3.00;;
52798;SDS011;38667;42.872;74.622;2023-08-06T01:09:56;8.25;;;2.80;;
52798;SDS011;38667;42.872;74.622;2023-08-06T01:12:31;7.82;;;2.63;;
52798;SDS011;38667;42.872;74.622;2023-08-06T01:15:07;8.00;;;2.63;;
52798;SDS011;38667;42.872;74.622;2023-08-06T01:17:41;9.93;;;3.20;;
52798;SDS011;38667;42.872;74.622;2023-08-06T01:20:09;5.43;;;2.58;;
52798;SDS011;38667;42.872;74.622;2023-08-06T01:22:37;10.23;;;3.50;;
52798;SDS011;38667;42.872;74.622;2023-08-06T01:25:04;9.50;;;3.80;;
52798;SDS011;38667;42.872;74.622;2023-08-06T01:27:33;11.70;;;4.10;;
52798;SDS011;38667;42.872;74.622;2023-08-06T01:30:11;11.30;;;3.72;;
52798;SDS011;38667;42.872;74.622;2023-08-06T01:32:42;9.05;;;3.40;;
52798;SDS011;38667;42.872;74.622;2023-08-06T01:35:11;7.57;;;2.95;;
52798;SDS011;38667;42.872;74.622;2023-08-06T01:37:41;6.43;;;3.40;;
52798;SDS011;38667;42.872;74.622;2023-08-06T01:40:09;11.82;;;2.95;;
52798;SDS011;38667;42.872;74.622;2023-08-06T01:42:37;11.32;;;3.20;;
52798;SDS011;38667;42.872;74.622;2023-08-06T01:45:04;8.13;;;2.60;;
52798;SDS011;38667;42.872;74.622;2023-08-06T01:47:31;5.35;;;2.45;;
52798;SDS011;38667;42.872;74.622;2023-08-06T01:49:57;5.50;;;2.63;;
52798;SDS011;38667;42.872;74.622;2023-08-06T01:52:23;6.72;;;2.15;;
52798;SDS011;38667;42.872;74.622;2023-08-06T01:54:51;8.80;;;3.00;;
52798;SDS011;38667;42.872;74.622;2023-08-06T01:57:17;8.88;;;2.47;;
52798;SDS011;38667;42.872;74.622;2023-08-06T01:59:43;5.53;;;2.08;;
52798;SDS011;38667;42.872;74.622;2023-08-06T02:02:10;6.95;;;2.42;;
52798;SDS011;38667;42.872;74.622;2023-08-06T02:04:36;6.45;;;2.08;;
52798;SDS011;38667;42.872;74.622;2023-08-06T02:07:03;7.53;;;2.78;;
52798;SDS011;38667;42.872;74.622;2023-08-06T02:09:29;6.85;;;2.15;;
52798;SDS011;38667;42.872;74.622;2023-08-06T02:11:57;5.03;;;2.55;;
52798;SDS011;38667;42.872;74.622;2023-08-06T02:14:24;6.78;;;2.20;;
52798;SDS011;38667;42.872;74.622;2023-08-06T02:16:50;7.95;;;2.08;;
52798;SDS011;38667;42.872;74.622;2023-08-06T02:19:16;6.13;;;2.60;;
52798;SDS011;38667;42.872;74.622;2023-08-06T02:21:42;8.25;;;2.65;;
52798;SDS011;38667;42.872;74.622;2023-08-06T02:24:09;4.15;;;2.42;;
52798;SDS011;38667;42.872;74.622;2023-08-06T02:26:35;9.27;;;2.83;;
52798;SDS011;38667;42.872;74.622;2023-08-06T02:29:03;8.65;;;2.65;;
52798;SDS011;38667;42.872;74.622;2023-08-06T02:31:29;7.25;;;2.47;;
52798;SDS011;38667;42.872;74.622;2023-08-06T02:33:56;8.13;;;2.40;;
52798;SDS011;38667;42.872;74.622;2023-08-06T02:36:22;8.70;;;2.40;;
52798;SDS011;38667;42.872;74.622;2023-08-06T02:38:48;5.00;;;2.13;;
52798;SDS011;38667;42.872;74.622;2023-08-06T02:41:15;6.53;;;2.35;;
52798;SDS011;38667;42.872;74.622;2023-08-06T02:43:41;9.80;;;2.63;;
52798;SDS011;38667;42.872;74.622;2023-08-06T02:46:09;8.02;;;2.10;;
52798;SDS011;38667;42.872;74.622;2023-08-06T02:48:36;9.85;;;1.90;;
52798;SDS011;38667;42.872;74.622;2023-08-06T02:51:02;7.07;;;2.25;;
52798;SDS011;38667;42.872;74.622;2023-08-06T02:53:28;6.22;;;2.20;;
52798;SDS011;38667;42.872;74.622;2023-08-06T02:55:55;6.05;;;2.17;;
52798;SDS011;38667;42.872;74.622;2023-08-06T02:58:21;6.05;;;2.40;;
52798;SDS011;38667;42.872;74.622;2023-08-06T03:00:58;5.47;;;2.30;;
52798;SDS011;38667;42.872;74.622;2023-08-06T03:03:27;9.05;;;2.50;;
52798;SDS011;38667;42.872;74.622;2023-08-06T03:05:53;8.95;;;2.80;;
52798;SDS011;38667;42.872;74.622;2023-08-06T03:08:19;8.88;;;3.05;;
52798;SDS011;38667;42.872;74.622;2023-08-06T03:10:46;8.52;;;2.60;;
52798;SDS011;38667;42.872;74.622;2023-08-06T03:13:12;6.70;;;2.47;;
52798;SDS011;38667;42.872;74.622;2023-08-06T03:15:38;5.07;;;2.80;;
52798;SDS011;38667;42.872;74.622;2023-08-06T03:18:05;9.30;;;2.90;;
52798;SDS011;38667;42.872;74.622;2023-08-06T03:20:33;7.55;;;3.30;;
52798;SDS011;38667;42.872;74.622;2023-08-06T03:22:59;7.25;;;3.28;;
52798;SDS011;38667;42.872;74.622;2023-08-06T03:25:26;8.30;;;3.40;;
52798;SDS011;38667;42.872;74.622;2023-08-06T03:27:52;8.40;;;3.33;;
52798;SDS011;38667;42.872;74.622;2023-08-06T03:30:18;5.78;;;3.05;;
52798;SDS011;38667;42.872;74.622;2023-08-06T03:32:45;5.97;;;2.80;;
52798;SDS011;38667;42.872;74.622;2023-08-06T03:35:11;6.85;;;3.25;;
52798;SDS011;38667;42.872;74.622;2023-08-06T03:37:39;9.68;;;2.80;;
52798;SDS011;38667;42.872;74.622;2023-08-06T03:40:05;8.90;;;3.20;;
52798;SDS011;38667;42.872;74.622;2023-08-06T03:42:33;7.20;;;2.70;;
52798;SDS011;38667;42.872;74.622;2023-08-06T03:44:59;8.57;;;2.75;;
52798;SDS011;38667;42.872;74.622;2023-08-06T03:47:25;6.78;;;2.63;;
52798;SDS011;38667;42.872;74.622;2023-08-06T03:49:51;7.90;;;3.50;;
52798;SDS011;38667;42.872;74.622;2023-08-06T03:52:18;11.15;;;3.78;;
52798;SDS011;38667;42.872;74.622;2023-08-06T03:54:46;9.57;;;3.83;;
52798;SDS011;38667;42.872;74.622;2023-08-06T03:57:12;11.55;;;4.18;;
52798;SDS011;38667;42.872;74.622;2023-08-06T03:59:38;8.68;;;3.50;;
52798;SDS011;38667;42.872;74.622;2023-08-06T04:02:05;9.38;;;3.63;;
52798;SDS011;38667;42.872;74.622;2023-08-06T04:04:31;9.02;;;2.90;;
52798;SDS011;38667;42.872;74.622;2023-08-06T04:06:57;7.25;;;2.83;;
52798;SDS011;38667;42.872;74.622;2023-08-06T04:09:24;10.73;;;3.10;;
52798;SDS011;38667;42.872;74.622;2023-08-06T04:11:51;10.18;;;3.58;;
52798;SDS011;38667;42.872;74.622;2023-08-06T04:14:18;8.93;;;3.58;;
52798;SDS011;38667;42.872;74.622;2023-08-06T04:16:44;5.22;;;3.15;;
52798;SDS011;38667;42.872;74.622;2023-08-06T04:19:10;7.72;;;3.45;;
52798;SDS011;38667;42.872;74.622;2023-08-06T04:21:37;6.43;;;3.42;;
52798;SDS011;38667;42.872;74.622;2023-08-06T04:24:03;6.25;;;2.42;;
52798;SDS011;38667;42.872;74.622;2023-08-06T04:26:29;10.73;;;3.15;;
52798;SDS011;38667;42.872;74.622;2023-08-06T04:28:57;5.00;;;2.67;;
52798;SDS011;38667;42.872;74.622;2023-08-06T04:31:24;8.82;;;2.80;;
52798;SDS011;38667;42.872;74.622;2023-08-06T04:33:50;6.72;;;2.28;;
52798;SDS011;38667;42.872;74.622;2023-08-06T04:36:16;5.10;;;2.38;;
52798;SDS011;38667;42.872;74.622;2023-08-06T04:38:42;4.72;;;2.30;;
52798;SDS011;38667;42.872;74.622;2023-08-06T04:41:09;5.20;;;2.22;;
52798;SDS011;38667;42.872;74.622;2023-08-06T04:43:35;5.78;;;2.13;;
52798;SDS011;38667;42.872;74.622;2023-08-06T04:46:03;10.13;;;2.30;;
52798;SDS011;38667;42.872;74.622;2023-08-06T04:48:30;6.88;;;2.40;;
52798;SDS011;38667;42.872;74.622;2023-08-06T04:50:57;4.80;;;2.33;;
52798;SDS011;38667;42.872;74.622;2023-08-06T04:53:23;6.28;;;2.22;;
52798;SDS011;38667;42.872;74.622;2023-08-06T04:55:49;5.25;;;2.25;;
52798;SDS011;38667;42.872;74.622;2023-08-06T04:58:15;5.50;;;2.05;;
52798;SDS011;38667;42.872;74.622;2023-08-06T05:00:42;10.95;;;2.80;;
52798;SDS011;38667;42.872;74.622;2023-08-06T05:03:10;5.53;;;2.25;;
52798;SDS011;38667;42.872;74.622;2023-08-06T05:05:36;8.52;;;2.95;;
52798;SDS011;38667;42.872;74.622;2023-08-06T05:08:05;9.52;;;2.90;;
52798;SDS011;38667;42.872;74.622;2023-08-06T05:10:31;8.90;;;2.60;;
52798;SDS011;38667;42.872;74.622;2023-08-06T05:12:57;13.88;;;3.10;;
52798;SDS011;38667;42.872;74.622;2023-08-06T05:15:23;11.13;;;2.38;;
52798;SDS011;38667;42.872;74.622;2023-08-06T05:17:50;5.78;;;2.00;;
52798;SDS011;38667;42.872;74.622;2023-08-06T05:20:19;3.25;;;1.80;;
52798;SDS011;38667;42.872;74.622;2023-08-06T05:22:45;5.30;;;1.77;;
52798;SDS011;38667;42.872;74.622;2023-08-06T05:25:12;7.38;;;2.42;;
52798;SDS011;38667;42.872;74.622;2023-08-06T05:27:39;5.07;;;1.80;;
52798;SDS011;38667;42.872;74.622;2023-08-06T05:30:06;12.82;;;2.20;;
52798;SDS011;38667;42.872;74.622;2023-08-06T05:32:33;9.00;;;2.30;;
52798;SDS011;38667;42.872;74.622;2023-08-06T05:34:59;3.83;;;1.80;;
52798;SDS011;38667;42.872;74.622;2023-08-06T05:37:27;10.80;;;2.63;;
52798;SDS011;38667;42.872;74.622;2023-08-06T05:39:53;4.57;;;2.00;;
52798;SDS011;38667;42.872;74.622;2023-08-06T05:42:20;6.00;;;1.90;;
52798;SDS011;38667;42.872;74.622;2023-08-06T05:44:46;5.32;;;1.98;;
52798;SDS011;38667;42.872;74.622;2023-08-06T05:47:12;11.38;;;2.42;;
52798;SDS011;38667;42.872;74.622;2023-08-06T05:49:39;8.40;;;2.05;;
52798;SDS011;38667;42.872;74.622;2023-08-06T05:52:05;3.50;;;1.70;;
52798;SDS011;38667;42.872;74.622;2023-08-06T05:54:33;10.40;;;1.80;;
52798;SDS011;38667;42.872;74.622;2023-08-06T05:57:00;7.82;;;2.40;;
52798;SDS011;38667;42.872;74.622;2023-08-06T05:59:26;5.28;;;2.13;;
52798;SDS011;38667;42.872;74.622;2023-08-06T06:01:52;8.95;;;2.30;;
52798;SDS011;38667;42.872;74.622;2023-08-06T06:04:18;9.75;;;2.03;;
52798;SDS011;38667;42.872;74.622;2023-08-06T06:06:45;5.57;;;2.08;;
52798;SDS011;38667;42.872;74.622;2023-08-06T06:09:11;7.00;;;2.03;;
52798;SDS011;38667;42.872;74.622;2023-08-06T06:11:39;4.47;;;2.50;;
52798;SDS011;38667;42.872;74.622;2023-08-06T06:14:05;10.27;;;2.22;;
52798;SDS011;38667;42.872;74.622;2023-08-06T06:16:32;10.25;;;2.15;;
52798;SDS011;38667;42.872;74.622;2023-08-06T06:18:59;27.67;;;3.05;;
52798;SDS011;38667;42.872;74.622;2023-08-06T06:21:25;3.65;;;2.10;;
52798;SDS011;38667;42.872;74.622;2023-08-06T06:23:52;11.55;;;2.17;;
52798;SDS011;38667;42.872;74.622;2023-08-06T06:26:18;9.50;;;2.97;;
52798;SDS011;38667;42.872;74.622;2023-08-06T06:28:46;12.05;;;2.80;;
52798;SDS011;38667;42.872;74.622;2023-08-06T06:31:12;9.30;;;2.15;;
52798;SDS011;38667;42.872;74.622;2023-08-06T06:33:38;6.00;;;2.58;;
52798;SDS011;38667;42.872;74.622;2023-08-06T06:36:05;9.57;;;2.50;;
52798;SDS011;38667;42.872;74.622;2023-08-06T06:38:31;5.97;;;2.08;;
52798;SDS011;38667;42.872;74.622;2023-08-06T06:40:58;6.70;;;2.10;;
52798;SDS011;38667;42.872;74.622;2023-08-06T06:43:24;5.22;;;1.88;;
52798;SDS011;38667;42.872;74.622;2023-08-06T06:45:55;12.18;;;2.40;;
52798;SDS011;38667;42.872;74.622;2023-08-06T06:48:22;11.57;;;2.20;;
52798;SDS011;38667;42.872;74.622;2023-08-06T06:50:48;11.95;;;2.10;;
52798;SDS011;38667;42.872;74.622;2023-08-06T06:53:15;8.15;;;2.17;;
52798;SDS011;38667;42.872;74.622;2023-08-06T06:55:41;6.75;;;1.80;;
52798;SDS011;38667;42.872;74.622;2023-08-06T06:58:07;11.18;;;2.65;;
52798;SDS011;38667;42.872;74.622;2023-08-06T07:00:35;11.75;;;2.55;;
52798;SDS011;38667;42.872;74.622;2023-08-06T07:03:03;9.90;;;2.30;;
52798;SDS011;38667;42.872;74.622;2023-08-06T07:05:29;4.63;;;1.98;;
52798;SDS011;38667;42.872;74.622;2023-08-06T07:07:55;10.05;;;2.30;;
52798;SDS011;38667;42.872;74.622;2023-08-06T07:10:22;8.73;;;2.22;;
52798;SDS011;38667;42.872;74.622;2023-08-06T07:12:48;4.82;;;2.38;;
52798;SDS011;38667;42.872;74.622;2023-08-06T07:15:14;7.05;;;2.15;;
52798;SDS011;38667;42.872;74.622;2023-08-06T07:17:41;4.85;;;2.10;;
52798;SDS011;38667;42.872;74.622;2023-08-06T07:20:09;9.00;;;2.58;;
52798;SDS011;38667;42.872;74.622;2023-08-06T07:22:36;14.35;;;2.30;;
52798;SDS011;38667;42.872;74.622;2023-08-06T07:25:02;5.38;;;2.22;;
52798;SDS011;38667;42.872;74.622;2023-08-06T07:27:29;13.48;;;2.75;;
52798;SDS011;38667;42.872;74.622;2023-08-06T07:29:55;7.75;;;2.50;;
52798;SDS011;38667;42.872;74.622;2023-08-06T07:32:22;11.10;;;2.42;;
52798;SDS011;38667;42.872;74.622;2023-08-06T07:34:48;8.60;;;2.30;;
52798;SDS011;38667;42.872;74.622;2023-08-06T07:37:16;12.27;;;2.28;;
52798;SDS011;38667;42.872;74.622;2023-08-06T07:39:42;12.52;;;2.58;;
52798;SDS011;38667;42.872;74.622;2023-08-06T07:42:09;15.63;;;3.28;;
52798;SDS011;38667;42.872;74.622;2023-08-06T07:44:36;11.75;;;2.90;;
52798;SDS011;38667;42.872;74.622;2023-08-06T07:47:02;10.73;;;3.05;;
52798;SDS011;38667;42.872;74.622;2023-08-06T07:49:29;12.75;;;3.13;;
52798;SDS011;38667;42.872;74.622;2023-08-06T07:51:55;12.45;;;2.25;;
52798;SDS011;38667;42.872;74.622;2023-08-06T07:54:23;10.40;;;2.70;;
52798;SDS011;38667;42.872;74.622;2023-08-06T07:56:50;11.40;;;2.55;;
52798;SDS011;38667;42.872;74.622;2023-08-06T07:59:16;11.50;;;2.38;;
52798;SDS011;38667;42.872;74.622;2023-08-06T08:01:42;18.60;;;2.65;;
52798;SDS011;38667;42.872;74.622;2023-08-06T08:04:08;9.25;;;2.15;;
52798;SDS011;38667;42.872;74.622;2023-08-06T08:06:35;14.02;;;2.45;;
52798;SDS011;38667;42.872;74.622;2023-08-06T08:09:01;8.55;;;2.35;;
52798;SDS011;38667;42.872;74.622;2023-08-06T08:11:29;16.33;;;2.53;;
52798;SDS011;38667;42.872;74.622;2023-08-06T08:13:55;12.38;;;2.13;;
52798;SDS011;38667;42.872;74.622;2023-08-06T08:16:22;16.80;;;3.00;;
52798;SDS011;38667;42.872;74.622;2023-08-06T08:18:48;21.80;;;3.03;;
52798;SDS011;38667;42.872;74.622;2023-08-06T08:21:14;15.02;;;2.80;;
52798;SDS011;38667;42.872;74.622;2023-08-06T08:23:40;18.98;;;3.20;;
52798;SDS011;38667;42.872;74.622;2023-08-06T08:26:07;18.80;;;3.03;;
52798;SDS011;38667;42.872;74.622;2023-08-06T08:28:35;23.33;;;3.58;;
52798;SDS011;38667;42.872;74.622;2023-08-06T08:31:01;19.27;;;2.88;;
52798;SDS011;38667;42.872;74.622;2023-08-06T08:33:28;21.33;;;3.47;;
52798;SDS011;38667;42.872;74.622;2023-08-06T08:35:54;23.42;;;3.30;;
52798;SDS011;38667;42.872;74.622;2023-08-06T08:38:20;23.33;;;2.75;;
52798;SDS011;38667;42.872;74.622;2023-08-06T08:40:46;14.23;;;2.42;;
52798;SDS011;38667;42.872;74.622;2023-08-06T08:43:17;17.95;;;2.35;;
52798;SDS011;38667;42.872;74.622;2023-08-06T08:45:49;17.73;;;2.58;;
52798;SDS011;38667;42.872;74.622;2023-08-06T08:48:16;7.35;;;2.15;;
52798;SDS011;38667;42.872;74.622;2023-08-06T08:50:44;9.52;;;2.78;;
52798;SDS011;38667;42.872;74.622;2023-08-06T08:53:12;6.88;;;1.90;;
52798;SDS011;38667;42.872;74.622;2023-08-06T08:55:39;11.93;;;2.60;;
52798;SDS011;38667;42.872;74.622;2023-08-06T08:58:07;8.48;;;2.40;;
52798;SDS011;38667;42.872;74.622;2023-08-06T09:00:34;11.68;;;2.50;;
52798;SDS011;38667;42.872;74.622;2023-08-06T09:03:02;6.60;;;2.10;;
52798;SDS011;38667;42.872;74.622;2023-08-06T09:05:32;11.88;;;2.33;;
52798;SDS011;38667;42.872;74.622;2023-08-06T09:07:59;10.20;;;2.58;;
52798;SDS011;38667;42.872;74.622;2023-08-06T09:10:28;14.40;;;2.70;;
52798;SDS011;38667;42.872;74.622;2023-08-06T09:12:55;6.75;;;2.10;;
52798;SDS011;38667;42.872;74.622;2023-08-06T09:15:23;13.85;;;2.70;;
52798;SDS011;38667;42.872;74.622;2023-08-06T09:17:50;14.57;;;2.88;;
52798;SDS011;38667;42.872;74.622;2023-08-06T09:20:18;10.40;;;2.50;;
52798;SDS011;38667;42.872;74.622;2023-08-06T09:22:45;10.70;;;2.30;;
52798;SDS011;38667;42.872;74.622;2023-08-06T09:25:11;6.57;;;2.47;;
52798;SDS011;38667;42.872;74.622;2023-08-06T09:27:39;7.78;;;2.42;;
52798;SDS011;38667;42.872;74.622;2023-08-06T09:30:06;7.80;;;2.17;;
52798;SDS011;38667;42.872;74.622;2023-08-06T09:32:45;8.20;;;2.00;;
52798;SDS011;38667;42.872;74.622;2023-08-06T09:35:15;7.82;;;2.17;;
52798;SDS011;38667;42.872;74.622;2023-08-06T09:37:43;4.95;;;2.22;;
52798;SDS011;38667;42.872;74.622;2023-08-06T09:40:23;6.55;;;2.15;;
52798;SDS011;38667;42.872;74.622;2023-08-06T09:42:50;4.35;;;1.80;;
52798;SDS011;38667;42.872;74.622;2023-08-06T09:45:16;5.43;;;2.03;;
52798;SDS011;38667;42.872;74.622;2023-08-06T09:47:43;8.48;;;2.13;;
52798;SDS011;38667;42.872;74.622;2023-08-06T09:50:14;11.93;;;2.42;;
52798;SDS011;38667;42.872;74.622;2023-08-06T09:52:44;9.05;;;2.58;;
52798;SDS011;38667;42.872;74.622;2023-08-06T09:55:10;5.07;;;2.28;;
52798;SDS011;38667;42.872;74.622;2023-08-06T09:57:38;7.50;;;2.72;;
52798;SDS011;38667;42.872;74.622;2023-08-06T10:00:05;8.13;;;2.53;;
52798;SDS011;38667;42.872;74.622;2023-08-06T10:02:34;12.40;;;2.85;;
52798;SDS011;38667;42.872;74.622;2023-08-06T10:05:02;24.70;;;3.10;;
52798;SDS011;38667;42.872;74.622;2023-08-06T10:07:29;13.10;;;2.88;;
52798;SDS011;38667;42.872;74.622;2023-08-06T10:09:58;15.32;;;2.78;;
52798;SDS011;38667;42.872;74.622;2023-08-06T10:12:26;14.60;;;3.03;;
52798;SDS011;38667;42.872;74.622;2023-08-06T10:14:55;11.73;;;2.85;;
52798;SDS011;38667;42.872;74.622;2023-08-06T10:17:25;11.95;;;2.80;;
52798;SDS011;38667;42.872;74.622;2023-08-06T10:19:52;11.20;;;2.97;;
52798;SDS011;38667;42.872;74.622;2023-08-06T10:22:18;14.73;;;3.15;;
52798;SDS011;38667;42.872;74.622;2023-08-06T10:24:45;14.85;;;2.90;;
52798;SDS011;38667;42.872;74.622;2023-08-06T10:27:21;12.85;;;3.22;;
52798;SDS011;38667;42.872;74.622;2023-08-06T10:29:48;9.25;;;2.63;;
52798;SDS011;38667;42.872;74.622;2023-08-06T10:32:14;14.68;;;2.90;;
52798;SDS011;38667;42.872;74.622;2023-08-06T10:34:53;15.90;;;3.45;;
52798;SDS011;38667;42.872;74.622;2023-08-06T10:37:21;17.48;;;3.10;;
52798;SDS011;38667;42.872;74.622;2023-08-06T10:39:48;11.52;;;2.55;;
52798;SDS011;38667;42.872;74.622;2023-08-06T10:42:20;8.65;;;2.75;;
52798;SDS011;38667;42.872;74.622;2023-08-06T10:47:39;11.00;;;2.85;;
52798;SDS011;38667;42.872;74.622;2023-08-06T10:50:06;9.30;;;3.72;;
52798;SDS011;38667;42.872;74.622;2023-08-06T10:52:33;6.10;;;3.10;;
52798;SDS011;38667;42.872;74.622;2023-08-06T10:54:59;8.43;;;2.72;;
52798;SDS011;38667;42.872;74.622;2023-08-06T10:57:27;17.65;;;3.25;;
52798;SDS011;38667;42.872;74.622;2023-08-06T10:59:54;14.70;;;2.90;;
52798;SDS011;38667;42.872;74.622;2023-08-06T11:02:20;9.73;;;2.72;;
52798;SDS011;38667;42.872;74.622;2023-08-06T11:04:46;12.07;;;2.53;;
52798;SDS011;38667;42.872;74.622;2023-08-06T11:07:13;10.02;;;2.90;;
52798;SDS011;38667;42.872;74.622;2023-08-06T11:09:40;6.90;;;2.30;;
52798;SDS011;38667;42.872;74.622;2023-08-06T11:12:09;8.15;;;2.35;;
52798;SDS011;38667;42.872;74.622;2023-08-06T11:14:37;5.07;;;2.33;;
52798;SDS011;38667;42.872;74.622;2023-08-06T11:17:03;3.42;;;2.20;;
52798;SDS011;38667;42.872;74.622;2023-08-06T11:19:30;6.85;;;2.25;;
52798;SDS011;38667;42.872;74.622;2023-08-06T11:21:57;7.82;;;2.20;;
52798;SDS011;38667;42.872;74.622;2023-08-06T11:24:23;7.80;;;2.30;;
52798;SDS011;38667;42.872;74.622;2023-08-06T11:26:50;9.15;;;2.53;;
52798;SDS011;38667;42.872;74.622;2023-08-06T11:29:16;15.25;;;2.60;;
52798;SDS011;38667;42.872;74.622;2023-08-06T11:31:44;6.70;;;2.40;;
52798;SDS011;38667;42.872;74.622;2023-08-06T11:34:10;5.70;;;2.30;;
52798;SDS011;38667;42.872;74.622;2023-08-06T11:36:40;16.30;;;2.40;;
52798;SDS011;38667;42.872;74.622;2023-08-06T11:39:06;6.03;;;2.53;;
52798;SDS011;38667;42.872;74.622;2023-08-06T11:41:34;8.68;;;3.08;;
52798;SDS011;38667;42.872;74.622;2023-08-06T11:44:01;7.95;;;2.75;;
52798;SDS011;38667;42.872;74.622;2023-08-06T11:46:28;7.85;;;2.55;;
52798;SDS011;38667;42.872;74.622;2023-08-06T11:49:16;7.20;;;2.70;;
52798;SDS011;38667;42.872;74.622;2023-08-06T11:51:43;7.22;;;2.88;;
52798;SDS011;38667;42.872;74.622;2023-08-06T11:54:11;11.60;;;3.00;;
52798;SDS011;38667;42.872;74.622;2023-08-06T11:56:37;6.97;;;2.58;;
52798;SDS011;38667;42.872;74.622;2023-08-06T11:59:03;7.05;;;2.63;;
52798;SDS011;38667;42.872;74.622;2023-08-06T12:01:30;10.52;;;2.55;;
52798;SDS011;38667;42.872;74.622;2023-08-06T12:03:58;7.53;;;2.60;;
52798;SDS011;38667;42.872;74.622;2023-08-06T12:06:28;7.80;;;2.25;;
52798;SDS011;38667;42.872;74.622;2023-08-06T12:08:54;7.75;;;2.70;;
52798;SDS011;38667;42.872;74.622;2023-08-06T12:11:21;10.10;;;2.58;;
52798;SDS011;38667;42.872;74.622;2023-08-06T12:13:50;6.45;;;2.53;;
52798;SDS011;38667;42.872;74.622;2023-08-06T12:16:16;9.52;;;2.97;;
52798;SDS011;38667;42.872;74.622;2023-08-06T12:18:43;9.38;;;2.30;;
52798;SDS011;38667;42.872;74.622;2023-08-06T12:21:09;12.13;;;2.95;;
52798;SDS011;38667;42.872;74.622;2023-08-06T12:23:37;6.35;;;2.85;;
52798;SDS011;38667;42.872;74.622;2023-08-06T12:26:03;12.07;;;3.10;;
52798;SDS011;38667;42.872;74.622;2023-08-06T12:28:29;6.85;;;2.70;;
52798;SDS011;38667;42.872;74.622;2023-08-06T12:30:56;8.50;;;2.92;;
52798;SDS011;38667;42.872;74.622;2023-08-06T12:33:22;18.25;;;3.65;;
52798;SDS011;38667;42.872;74.622;2023-08-06T12:35:48;6.00;;;2.90;;
52798;SDS011;38667;42.872;74.622;2023-08-06T12:38:15;13.88;;;3.10;;
52798;SDS011;38667;42.872;74.622;2023-08-06T12:40:42;13.55;;;3.10;;
52798;SDS011;38667;42.872;74.622;2023-08-06T12:43:09;8.38;;;3.13;;
52798;SDS011;38667;42.872;74.622;2023-08-06T12:45:35;12.93;;;3.83;;
52798;SDS011;38667;42.872;74.622;2023-08-06T12:48:01;7.68;;;2.83;;
52798;SDS011;38667;42.872;74.622;2023-08-06T12:50:28;12.57;;;3.33;;
52798;SDS011;38667;42.872;74.622;2023-08-06T12:52:54;13.75;;;3.22;;
52798;SDS011;38667;42.872;74.622;2023-08-06T12:55:21;11.55;;;3.42;;
52798;SDS011;38667;42.872;74.622;2023-08-06T12:57:49;11.93;;;3.50;;
52798;SDS011;38667;42.872;74.622;2023-08-06T13:00:15;17.27;;;3.95;;
52798;SDS011;38667;42.872;74.622;2023-08-06T13:02:41;19.42;;;4.15;;
52798;SDS011;38667;42.872;74.622;2023-08-06T13:05:08;14.05;;;3.95;;
52798;SDS011;38667;42.872;74.622;2023-08-06T13:07:34;16.63;;;4.45;;
52798;SDS011;38667;42.872;74.622;2023-08-06T13:10:00;12.32;;;4.03;;
52798;SDS011;38667;42.872;74.622;2023-08-06T13:12:27;14.07;;;5.05;;
52798;SDS011;38667;42.872;74.622;2023-08-06T13:14:54;13.68;;;4.30;;
52798;SDS011;38667;42.872;74.622;2023-08-06T13:17:21;9.68;;;4.15;;
52798;SDS011;38667;42.872;74.622;2023-08-06T13:19:47;12.43;;;3.78;;
52798;SDS011;38667;42.872;74.622;2023-08-06T13:22:13;13.50;;;4.85;;
52798;SDS011;38667;42.872;74.622;2023-08-06T13:24:40;8.43;;;4.20;;
52798;SDS011;38667;42.872;74.622;2023-08-06T13:27:06;12.13;;;4.38;;
52798;SDS011;38667;42.872;74.622;2023-08-06T13:29:32;10.98;;;4.35;;
52798;SDS011;38667;42.872;74.622;2023-08-06T13:32:00;23.08;;;4.00;;
52798;SDS011;38667;42.872;74.622;2023-08-06T13:34:26;16.02;;;4.07;;
52798;SDS011;38667;42.872;74.622;2023-08-06T13:36:53;11.82;;;3.65;;
52798;SDS011;38667;42.872;74.622;2023-08-06T13:39:19;13.32;;;4.13;;
52798;SDS011;38667;42.872;74.622;2023-08-06T13:41:45;15.02;;;3.75;;
52798;SDS011;38667;42.872;74.622;2023-08-06T13:44:12;12.48;;;3.70;;
52798;SDS011;38667;42.872;74.622;2023-08-06T13:46:38;19.13;;;3.92;;
52798;SDS011;38667;42.872;74.622;2023-08-06T13:49:06;11.65;;;5.03;;
52798;SDS011;38667;42.872;74.622;2023-08-06T13:51:32;9.40;;;4.38;;
52798;SDS011;38667;42.872;74.622;2023-08-06T13:53:58;13.88;;;4.65;;
52798;SDS011;38667;42.872;74.622;2023-08-06T13:56:25;12.55;;;4.85;;
52798;SDS011;38667;42.872;74.622;2023-08-06T13:58:51;17.45;;;4.68;;
52798;SDS011;38667;42.872;74.622;2023-08-06T14:01:17;15.32;;;5.13;;
52798;SDS011;38667;42.872;74.622;2023-08-06T14:03:44;12.90;;;4.35;;
52798;SDS011;38667;42.872;74.622;2023-08-06T14:06:12;19.00;;;5.05;;
52798;SDS011;38667;42.872;74.622;2023-08-06T14:08:38;17.05;;;4.35;;
52798;SDS011;38667;42.872;74.622;2023-08-06T14:11:05;19.92;;;4.10;;
52798;SDS011;38667;42.872;74.622;2023-08-06T14:13:31;17.35;;;4.63;;
52798;SDS011;38667;42.872;74.622;2023-08-06T14:15:57;16.60;;;4.05;;
52798;SDS011;38667;42.872;74.622;2023-08-06T14:18:24;8.68;;;3.95;;
52798;SDS011;38667;42.872;74.622;2023-08-06T14:20:50;15.85;;;4.50;;
52798;SDS011;38667;42.872;74.622;2023-08-06T14:23:18;12.00;;;7.00;;
52798;SDS011;38667;42.872;74.622;2023-08-06T14:25:44;18.83;;;7.63;;
52798;SDS011;38667;42.872;74.622;2023-08-06T14:28:10;14.73;;;7.10;;
52798;SDS011;38667;42.872;74.622;2023-08-06T14:30:37;16.00;;;7.90;;